sensor_id;sensor_type;location;lat;lon;timestamp;pressure;altitude;pressure_sealevel;temperature;humidity
50933;BME280;36921;49.006;9.292;2023-05-31T00:01:01;99086.53;;;15.91;54.37
50933;BME280;36921;49.006;9.292;2023-05-31T00:03:26;99076.25;;;15.74;54.34
50933;BME280;36921;49.006;9.292;2023-05-31T00:05:51;99086.16;;;15.87;53.98
50933;BME280;36921;49.006;9.292;2023-05-31T00:08:16;99077.53;;;15.90;53.49
50933;BME280;36921;49.006;9.292;2023-05-31T00:10:42;99077.75;;;15.89;53.80
50933;BME280;36921;49.006;9.292;2023-05-31T00:13:07;99071.78;;;15.80;53.59
50933;BME280;36921;49.006;9.292;2023-05-31T00:15:32;99058.91;;;15.69;53.68
50933;BME280;36921;49.006;9.292;2023-05-31T00:17:57;99089.81;;;15.81;53.87
50933;BME280;36921;49.006;9.292;2023-05-31T00:20:23;99070.50;;;15.83;53.71
50933;BME280;36921;49.006;9.292;2023-05-31T00:22:48;99075.09;;;15.82;53.90
50933;BME280;36921;49.006;9.292;2023-05-31T00:25:14;99070.84;;;15.86;54.19
50933;BME280;36921;49.006;9.292;2023-05-31T00:27:39;99075.81;;;15.77;54.11
50933;BME280;36921;49.006;9.292;2023-05-31T00:30:05;99088.72;;;15.82;54.47
50933;BME280;36921;49.006;9.292;2023-05-31T00:32:30;99080.53;;;15.82;54.32
50933;BME280;36921;49.006;9.292;2023-05-31T00:34:55;99071.00;;;15.91;53.70
50933;BME280;36921;49.006;9.292;2023-05-31T00:37:21;99065.66;;;15.96;54.04
50933;BME280;36921;49.006;9.292;2023-05-31T00:39:46;99064.00;;;15.95;54.07
50933;BME280;36921;49.006;9.292;2023-05-31T00:42:11;99061.16;;;15.90;54.08
50933;BME280;36921;49.006;9.292;2023-05-31T00:44:37;99064.47;;;15.92;54.47
50933;BME280;36921;49.006;9.292;2023-05-31T00:47:02;99064.25;;;16.06;54.39
50933;BME280;36921;49.006;9.292;2023-05-31T00:49:28;99059.75;;;15.99;54.41
50933;BME280;36921;49.006;9.292;2023-05-31T00:51:54;99062.94;;;15.96;54.83
50933;BME280;36921;49.006;9.292;2023-05-31T00:54:20;99035.03;;;15.83;55.07
50933;BME280;36921;49.006;9.292;2023-05-31T00:56:45;99059.28;;;16.03;54.72
50933;BME280;36921;49.006;9.292;2023-05-31T00:59:11;99034.09;;;16.00;54.44
50933;BME280;36921;49.006;9.292;2023-05-31T01:01:36;99040.78;;;16.05;54.53
50933;BME280;36921;49.006;9.292;2023-05-31T01:04:02;99055.78;;;16.14;54.57
50933;BME280;36921;49.006;9.292;2023-05-31T01:06:28;99045.06;;;16.12;54.30
50933;BME280;36921;49.006;9.292;2023-05-31T01:08:57;99058.38;;;16.09;54.79
50933;BME280;36921;49.006;9.292;2023-05-31T01:16:25;99040.50;;;15.94;54.99
50933;BME280;36921;49.006;9.292;2023-05-31T01:18:58;99031.25;;;15.95;55.21
50933;BME280;36921;49.006;9.292;2023-05-31T01:21:52;99050.34;;;15.95;55.07
50933;BME280;36921;49.006;9.292;2023-05-31T01:24:26;99051.78;;;15.98;54.71
50933;BME280;36921;49.006;9.292;2023-05-31T01:26:58;99048.00;;;15.99;55.01
50933;BME280;36921;49.006;9.292;2023-05-31T01:29:26;99048.00;;;15.99;55.08
50933;BME280;36921;49.006;9.292;2023-05-31T01:31:54;99035.38;;;15.86;55.03
50933;BME280;36921;49.006;9.292;2023-05-31T01:34:20;99056.75;;;15.89;55.30
50933;BME280;36921;49.006;9.292;2023-05-31T01:36:45;99039.03;;;15.80;55.09
50933;BME280;36921;49.006;9.292;2023-05-31T01:39:11;99038.75;;;15.70;55.60
50933;BME280;36921;49.006;9.292;2023-05-31T01:41:39;99033.00;;;15.60;55.70
50933;BME280;36921;49.006;9.292;2023-05-31T01:47:27;99058.91;;;15.69;55.84
50933;BME280;36921;49.006;9.292;2023-05-31T01:49:53;99071.63;;;15.75;55.57
50933;BME280;36921;49.006;9.292;2023-05-31T01:52:19;99051.47;;;15.57;56.00
50933;BME280;36921;49.006;9.292;2023-05-31T01:54:45;99066.88;;;15.52;55.95
50933;BME280;36921;49.006;9.292;2023-05-31T01:57:12;99075.88;;;15.52;56.15
50933;BME280;36921;49.006;9.292;2023-05-31T01:59:39;99078.38;;;15.54;56.21
50933;BME280;36921;49.006;9.292;2023-05-31T02:02:05;99082.41;;;15.51;56.37
50933;BME280;36921;49.006;9.292;2023-05-31T02:04:31;99079.53;;;15.46;56.35
50933;BME280;36921;49.006;9.292;2023-05-31T02:06:56;99074.66;;;15.30;56.92
50933;BME280;36921;49.006;9.292;2023-05-31T02:09:23;99072.84;;;15.24;56.64
50933;BME280;36921;49.006;9.292;2023-05-31T02:11:48;99061.78;;;15.19;57.23
50933;BME280;36921;49.006;9.292;2023-05-31T02:14:14;99068.63;;;15.09;57.29
50933;BME280;36921;49.006;9.292;2023-05-31T02:16:39;99081.19;;;15.29;57.10
50933;BME280;36921;49.006;9.292;2023-05-31T02:19:05;99092.25;;;15.34;57.46
50933;BME280;36921;49.006;9.292;2023-05-31T02:21:33;99075.06;;;15.15;57.55
50933;BME280;36921;49.006;9.292;2023-05-31T02:24:00;99084.06;;;15.16;58.11
50933;BME280;36921;49.006;9.292;2023-05-31T02:26:26;99071.50;;;15.15;58.25
50933;BME280;36921;49.006;9.292;2023-05-31T02:28:51;99047.69;;;14.85;58.55
50933;BME280;36921;49.006;9.292;2023-05-31T02:31:16;99085.28;;;15.01;58.96
50933;BME280;36921;49.006;9.292;2023-05-31T02:33:42;99080.69;;;14.95;59.26
50933;BME280;36921;49.006;9.292;2023-05-31T02:36:08;99075.03;;;14.97;58.74
50933;BME280;36921;49.006;9.292;2023-05-31T02:38:34;99069.19;;;14.93;58.45
50933;BME280;36921;49.006;9.292;2023-05-31T02:40:59;99082.31;;;15.03;58.78
50933;BME280;36921;49.006;9.292;2023-05-31T02:43:24;99084.00;;;15.04;59.12
50933;BME280;36921;49.006;9.292;2023-05-31T02:45:49;99068.19;;;14.87;58.59
50933;BME280;36921;49.006;9.292;2023-05-31T02:48:15;99068.78;;;14.96;58.16
50933;BME280;36921;49.006;9.292;2023-05-31T02:50:41;99064.28;;;14.83;58.43
50933;BME280;36921;49.006;9.292;2023-05-31T02:53:06;99085.78;;;14.92;58.81
50933;BME280;36921;49.006;9.292;2023-05-31T02:55:32;99078.47;;;14.85;58.96
50933;BME280;36921;49.006;9.292;2023-05-31T02:57:57;99065.31;;;14.82;59.07
50933;BME280;36921;49.006;9.292;2023-05-31T03:00:23;99062.06;;;14.74;59.12
50933;BME280;36921;49.006;9.292;2023-05-31T03:02:49;99081.91;;;14.81;59.30
50933;BME280;36921;49.006;9.292;2023-05-31T03:05:15;99073.69;;;14.62;60.44
50933;BME280;36921;49.006;9.292;2023-05-31T03:07:40;99067.88;;;14.52;60.37
50933;BME280;36921;49.006;9.292;2023-05-31T03:10:06;99061.19;;;14.48;60.55
50933;BME280;36921;49.006;9.292;2023-05-31T03:12:33;99086.56;;;14.74;59.37
50933;BME280;36921;49.006;9.292;2023-05-31T03:14:58;99074.72;;;14.61;59.55
50933;BME280;36921;49.006;9.292;2023-05-31T03:17:24;99070.97;;;14.62;59.58
50933;BME280;36921;49.006;9.292;2023-05-31T03:19:50;99066.28;;;14.69;59.02
50933;BME280;36921;49.006;9.292;2023-05-31T03:22:15;99073.78;;;14.74;58.80
50933;BME280;36921;49.006;9.292;2023-05-31T03:24:41;99080.22;;;14.80;59.35
50933;BME280;36921;49.006;9.292;2023-05-31T03:27:06;99076.78;;;14.66;59.59
50933;BME280;36921;49.006;9.292;2023-05-31T03:29:33;99093.09;;;14.73;60.27
50933;BME280;36921;49.006;9.292;2023-05-31T03:31:58;99088.91;;;14.70;59.77
50933;BME280;36921;49.006;9.292;2023-05-31T03:34:24;99089.94;;;14.44;63.48
50933;BME280;36921;49.006;9.292;2023-05-31T03:36:49;99087.81;;;14.14;67.81
50933;BME280;36921;49.006;9.292;2023-05-31T03:39:16;99094.41;;;14.00;74.26
50933;BME280;36921;49.006;9.292;2023-05-31T03:41:41;99097.91;;;13.75;77.92
50933;BME280;36921;49.006;9.292;2023-05-31T03:44:06;99091.94;;;13.53;78.68
50933;BME280;36921;49.006;9.292;2023-05-31T03:46:31;99087.94;;;13.56;78.60
50933;BME280;36921;49.006;9.292;2023-05-31T03:48:57;99092.56;;;13.55;79.34
50933;BME280;36921;49.006;9.292;2023-05-31T03:51:22;99086.88;;;13.57;79.85
50933;BME280;36921;49.006;9.292;2023-05-31T03:53:47;99090.03;;;13.54;80.94
50933;BME280;36921;49.006;9.292;2023-05-31T03:56:13;99089.22;;;13.53;84.64
50933;BME280;36921;49.006;9.292;2023-05-31T03:58:38;99093.19;;;13.51;89.36
50933;BME280;36921;49.006;9.292;2023-05-31T04:01:04;99083.81;;;13.40;94.29
50933;BME280;36921;49.006;9.292;2023-05-31T04:03:31;99096.16;;;13.43;95.44
50933;BME280;36921;49.006;9.292;2023-05-31T04:05:57;99096.78;;;13.38;96.81
50933;BME280;36921;49.006;9.292;2023-05-31T04:08:22;99105.75;;;13.45;94.32
50933;BME280;36921;49.006;9.292;2023-05-31T04:10:48;99108.00;;;13.62;92.31
50933;BME280;36921;49.006;9.292;2023-05-31T04:13:14;99120.94;;;13.66;92.50
50933;BME280;36921;49.006;9.292;2023-05-31T04:15:39;99114.03;;;13.70;92.70
50933;BME280;36921;49.006;9.292;2023-05-31T04:18:04;99093.13;;;13.64;93.80
50933;BME280;36921;49.006;9.292;2023-05-31T04:20:30;99095.41;;;13.74;92.97
50933;BME280;36921;49.006;9.292;2023-05-31T04:22:55;99105.16;;;13.88;90.07
50933;BME280;36921;49.006;9.292;2023-05-31T04:25:20;99097.94;;;14.07;86.48
50933;BME280;36921;49.006;9.292;2023-05-31T04:27:46;99116.22;;;14.25;84.14
50933;BME280;36921;49.006;9.292;2023-05-31T04:30:12;99112.69;;;14.24;87.00
50933;BME280;36921;49.006;9.292;2023-05-31T04:32:38;99120.16;;;14.36;84.56
50933;BME280;36921;49.006;9.292;2023-05-31T04:35:04;99107.13;;;14.38;84.70
50933;BME280;36921;49.006;9.292;2023-05-31T04:37:31;99109.00;;;14.44;83.20
50933;BME280;36921;49.006;9.292;2023-05-31T04:39:58;99112.47;;;14.51;84.21
50933;BME280;36921;49.006;9.292;2023-05-31T04:42:24;99108.09;;;14.50;83.38
50933;BME280;36921;49.006;9.292;2023-05-31T04:44:53;99124.75;;;14.67;81.35
50933;BME280;36921;49.006;9.292;2023-05-31T04:47:23;99126.16;;;14.76;80.50
50933;BME280;36921;49.006;9.292;2023-05-31T04:49:49;99123.38;;;14.83;81.23
50933;BME280;36921;49.006;9.292;2023-05-31T04:52:15;99122.75;;;14.81;82.50
50933;BME280;36921;49.006;9.292;2023-05-31T04:54:41;99088.47;;;14.73;80.27
50933;BME280;36921;49.006;9.292;2023-05-31T04:57:22;99127.19;;;15.00;81.21
50933;BME280;36921;49.006;9.292;2023-05-31T04:59:48;99112.53;;;15.01;80.42
50933;BME280;36921;49.006;9.292;2023-05-31T05:02:13;99120.16;;;15.11;81.08
50933;BME280;36921;49.006;9.292;2023-05-31T05:04:38;99123.66;;;15.18;79.61
50933;BME280;36921;49.006;9.292;2023-05-31T05:07:04;99115.63;;;15.23;79.33
50933;BME280;36921;49.006;9.292;2023-05-31T05:09:30;99136.31;;;15.49;77.15
50933;BME280;36921;49.006;9.292;2023-05-31T05:11:55;99121.63;;;15.50;79.31
50933;BME280;36921;49.006;9.292;2023-05-31T05:14:21;99137.09;;;15.56;78.29
50933;BME280;36921;49.006;9.292;2023-05-31T05:16:46;99129.88;;;15.62;76.86
50933;BME280;36921;49.006;9.292;2023-05-31T05:19:12;99128.94;;;15.75;77.93
50933;BME280;36921;49.006;9.292;2023-05-31T05:21:37;99114.81;;;15.78;78.12
50933;BME280;36921;49.006;9.292;2023-05-31T05:24:03;99123.81;;;15.97;77.70
50933;BME280;36921;49.006;9.292;2023-05-31T05:26:28;99135.97;;;16.13;77.27
50933;BME280;36921;49.006;9.292;2023-05-31T05:28:53;99137.47;;;16.27;74.23
50933;BME280;36921;49.006;9.292;2023-05-31T05:31:19;99141.03;;;16.39;75.41
50933;BME280;36921;49.006;9.292;2023-05-31T05:33:44;99137.88;;;16.54;73.27
50933;BME280;36921;49.006;9.292;2023-05-31T05:36:10;99144.44;;;16.65;71.85
50933;BME280;36921;49.006;9.292;2023-05-31T05:38:35;99149.50;;;16.92;72.85
50933;BME280;36921;49.006;9.292;2023-05-31T05:41:00;99144.28;;;17.02;70.95
50933;BME280;36921;49.006;9.292;2023-05-31T05:43:26;99145.38;;;17.24;72.41
50933;BME280;36921;49.006;9.292;2023-05-31T05:45:53;99134.31;;;17.19;68.72
50933;BME280;36921;49.006;9.292;2023-05-31T05:48:19;99132.97;;;17.34;70.04
50933;BME280;36921;49.006;9.292;2023-05-31T05:50:44;99144.22;;;17.72;69.06
50933;BME280;36921;49.006;9.292;2023-05-31T05:53:10;99145.41;;;17.77;68.84
50933;BME280;36921;49.006;9.292;2023-05-31T05:55:36;99150.63;;;17.90;65.36
50933;BME280;36921;49.006;9.292;2023-05-31T05:58:01;99142.16;;;17.91;65.12
50933;BME280;36921;49.006;9.292;2023-05-31T06:00:27;99139.63;;;18.02;64.13
50933;BME280;36921;49.006;9.292;2023-05-31T06:02:53;99143.09;;;18.26;64.09
50933;BME280;36921;49.006;9.292;2023-05-31T06:05:19;99138.22;;;18.28;64.49
50933;BME280;36921;49.006;9.292;2023-05-31T06:07:50;99149.78;;;18.30;63.45
50933;BME280;36921;49.006;9.292;2023-05-31T06:10:16;99142.16;;;18.32;61.55
50933;BME280;36921;49.006;9.292;2023-05-31T06:12:41;99143.28;;;18.36;61.63
50933;BME280;36921;49.006;9.292;2023-05-31T06:15:07;99137.19;;;18.62;62.45
50933;BME280;36921;49.006;9.292;2023-05-31T06:17:32;99140.50;;;18.76;60.82
50933;BME280;36921;49.006;9.292;2023-05-31T06:19:58;99148.13;;;18.91;59.45
50933;BME280;36921;49.006;9.292;2023-05-31T06:22:23;99131.66;;;18.91;59.19
50933;BME280;36921;49.006;9.292;2023-05-31T06:24:48;99138.56;;;19.11;59.36
50933;BME280;36921;49.006;9.292;2023-05-31T06:27:14;99131.91;;;19.07;58.59
50933;BME280;36921;49.006;9.292;2023-05-31T06:29:39;99121.16;;;19.39;58.44
50933;BME280;36921;49.006;9.292;2023-05-31T06:32:05;99123.41;;;19.64;57.72
50933;BME280;36921;49.006;9.292;2023-05-31T06:34:30;99111.84;;;19.62;57.07
50933;BME280;36921;49.006;9.292;2023-05-31T06:36:55;99120.81;;;19.74;56.38
50933;BME280;36921;49.006;9.292;2023-05-31T06:39:21;99114.56;;;19.79;56.01
50933;BME280;36921;49.006;9.292;2023-05-31T06:41:46;99124.34;;;20.46;53.46
50933;BME280;36921;49.006;9.292;2023-05-31T06:44:11;99120.00;;;22.30;50.88
50933;BME280;36921;49.006;9.292;2023-05-31T06:46:37;99129.16;;;24.63;46.64
50933;BME280;36921;49.006;9.292;2023-05-31T06:49:02;99132.75;;;25.80;43.78
50933;BME280;36921;49.006;9.292;2023-05-31T06:51:30;99128.34;;;25.79;42.41
50933;BME280;36921;49.006;9.292;2023-05-31T06:53:55;99120.69;;;25.95;42.62
50933;BME280;36921;49.006;9.292;2023-05-31T06:56:21;99117.75;;;27.60;40.34
50933;BME280;36921;49.006;9.292;2023-05-31T06:58:47;99108.44;;;28.34;38.73
50933;BME280;36921;49.006;9.292;2023-05-31T07:01:13;99119.34;;;28.44;38.57
50933;BME280;36921;49.006;9.292;2023-05-31T07:03:38;99128.47;;;28.08;38.49
50933;BME280;36921;49.006;9.292;2023-05-31T07:06:04;99113.94;;;27.56;38.50
50933;BME280;36921;49.006;9.292;2023-05-31T07:08:29;99117.13;;;27.63;38.51
50933;BME280;36921;49.006;9.292;2023-05-31T07:10:54;99109.28;;;28.21;36.91
50933;BME280;36921;49.006;9.292;2023-05-31T07:13:20;99111.28;;;29.24;36.46
50933;BME280;36921;49.006;9.292;2023-05-31T07:15:45;99122.94;;;30.06;35.63
50933;BME280;36921;49.006;9.292;2023-05-31T07:18:10;99107.41;;;30.57;35.04
50933;BME280;36921;49.006;9.292;2023-05-31T07:20:35;99102.03;;;31.81;33.84
50933;BME280;36921;49.006;9.292;2023-05-31T07:23:01;99114.41;;;33.27;31.92
50933;BME280;36921;49.006;9.292;2023-05-31T07:25:26;99103.97;;;32.19;32.58
50933;BME280;36921;49.006;9.292;2023-05-31T07:27:51;99078.88;;;32.85;31.78
50933;BME280;36921;49.006;9.292;2023-05-31T07:30:17;99111.81;;;30.75;32.27
50933;BME280;36921;49.006;9.292;2023-05-31T07:32:42;99104.16;;;29.40;34.96
50933;BME280;36921;49.006;9.292;2023-05-31T07:35:08;99103.69;;;28.71;34.84
50933;BME280;36921;49.006;9.292;2023-05-31T07:37:34;99097.38;;;30.30;33.54
50933;BME280;36921;49.006;9.292;2023-05-31T07:39:59;99111.03;;;31.57;32.97
50933;BME280;36921;49.006;9.292;2023-05-31T07:42:25;99101.16;;;30.86;33.52
50933;BME280;36921;49.006;9.292;2023-05-31T07:44:50;99085.47;;;31.67;33.33
50933;BME280;36921;49.006;9.292;2023-05-31T07:47:16;99107.84;;;33.10;31.52
50933;BME280;36921;49.006;9.292;2023-05-31T07:49:42;99096.25;;;33.94;31.09
50933;BME280;36921;49.006;9.292;2023-05-31T07:52:08;99104.63;;;34.43;30.09
50933;BME280;36921;49.006;9.292;2023-05-31T07:54:33;99090.53;;;34.56;29.72
50933;BME280;36921;49.006;9.292;2023-05-31T07:56:58;99085.16;;;34.91;29.63
50933;BME280;36921;49.006;9.292;2023-05-31T07:59:24;99092.16;;;33.79;29.56
50933;BME280;36921;49.006;9.292;2023-05-31T08:01:49;99054.97;;;33.95;29.35
50933;BME280;36921;49.006;9.292;2023-05-31T08:04:15;99085.28;;;34.66;29.37
50933;BME280;36921;49.006;9.292;2023-05-31T08:06:41;99088.94;;;35.11;29.39
50933;BME280;36921;49.006;9.292;2023-05-31T08:09:07;99083.22;;;35.87;28.52
50933;BME280;36921;49.006;9.292;2023-05-31T08:11:32;99085.00;;;36.46;28.29
50933;BME280;36921;49.006;9.292;2023-05-31T08:14:01;99086.09;;;36.06;27.26
50933;BME280;36921;49.006;9.292;2023-05-31T08:16:26;99085.44;;;34.45;29.36
50933;BME280;36921;49.006;9.292;2023-05-31T08:18:51;99077.19;;;34.65;28.49
50933;BME280;36921;49.006;9.292;2023-05-31T08:21:17;99085.47;;;35.97;28.49
50933;BME280;36921;49.006;9.292;2023-05-31T08:23:42;99084.66;;;34.33;29.00
50933;BME280;36921;49.006;9.292;2023-05-31T08:26:08;99061.84;;;34.62;29.11
50933;BME280;36921;49.006;9.292;2023-05-31T08:28:34;99065.34;;;36.30;27.92
50933;BME280;36921;49.006;9.292;2023-05-31T08:30:59;99070.38;;;36.05;27.45
50933;BME280;36921;49.006;9.292;2023-05-31T08:33:28;99049.56;;;35.74;28.44
50933;BME280;36921;49.006;9.292;2023-05-31T08:35:55;99078.53;;;36.26;28.46
50933;BME280;36921;49.006;9.292;2023-05-31T08:38:28;99050.16;;;36.74;26.88
50933;BME280;36921;49.006;9.292;2023-05-31T08:41:00;99083.41;;;36.10;27.62
50933;BME280;36921;49.006;9.292;2023-05-31T08:43:27;99071.66;;;36.43;27.89
50933;BME280;36921;49.006;9.292;2023-05-31T08:45:54;99062.28;;;37.17;26.70
50933;BME280;36921;49.006;9.292;2023-05-31T08:50:56;99060.72;;;37.92;27.68
50933;BME280;36921;49.006;9.292;2023-05-31T08:53:24;99050.69;;;39.22;25.92
50933;BME280;36921;49.006;9.292;2023-05-31T08:55:52;99064.16;;;36.51;26.43
50933;BME280;36921;49.006;9.292;2023-05-31T08:58:18;99060.81;;;36.26;27.45
50933;BME280;36921;49.006;9.292;2023-05-31T09:00:44;99070.88;;;37.47;27.06
50933;BME280;36921;49.006;9.292;2023-05-31T09:03:10;99042.53;;;38.16;26.05
50933;BME280;36921;49.006;9.292;2023-05-31T09:05:36;99055.47;;;39.15;25.01
50933;BME280;36921;49.006;9.292;2023-05-31T09:08:01;99044.41;;;38.69;25.81
50933;BME280;36921;49.006;9.292;2023-05-31T09:10:27;99045.91;;;39.78;23.81
50933;BME280;36921;49.006;9.292;2023-05-31T09:12:54;99058.44;;;38.01;24.91
50933;BME280;36921;49.006;9.292;2023-05-31T09:15:22;99066.19;;;37.55;25.57
50933;BME280;36921;49.006;9.292;2023-05-31T09:17:48;99050.38;;;36.84;26.73
50933;BME280;36921;49.006;9.292;2023-05-31T09:20:13;99055.59;;;36.63;26.12
50933;BME280;36921;49.006;9.292;2023-05-31T09:22:39;99057.56;;;36.43;26.75
50933;BME280;36921;49.006;9.292;2023-05-31T09:25:05;99048.78;;;36.29;26.68
50933;BME280;36921;49.006;9.292;2023-05-31T09:27:38;99052.91;;;36.51;26.42
50933;BME280;36921;49.006;9.292;2023-05-31T09:30:07;99047.91;;;36.44;25.78
50933;BME280;36921;49.006;9.292;2023-05-31T09:32:34;99040.31;;;35.74;26.85
50933;BME280;36921;49.006;9.292;2023-05-31T09:35:16;99050.06;;;36.31;26.30
50933;BME280;36921;49.006;9.292;2023-05-31T09:37:47;99045.09;;;37.25;26.26
50933;BME280;36921;49.006;9.292;2023-05-31T09:40:14;99046.44;;;37.32;25.98
50933;BME280;36921;49.006;9.292;2023-05-31T09:42:49;99035.63;;;37.87;26.11
50933;BME280;36921;49.006;9.292;2023-05-31T09:45:15;99038.88;;;35.32;27.20
50933;BME280;36921;49.006;9.292;2023-05-31T09:47:40;99031.44;;;35.08;26.83
50933;BME280;36921;49.006;9.292;2023-05-31T09:50:16;99035.69;;;36.01;25.94
50933;BME280;36921;49.006;9.292;2023-05-31T09:52:46;99039.75;;;36.97;24.83
50933;BME280;36921;49.006;9.292;2023-05-31T09:55:13;99035.72;;;36.56;25.33
50933;BME280;36921;49.006;9.292;2023-05-31T09:57:40;99028.88;;;35.67;26.68
50933;BME280;36921;49.006;9.292;2023-05-31T10:02:41;99037.78;;;38.54;23.72
50933;BME280;36921;49.006;9.292;2023-05-31T10:05:08;99048.03;;;37.33;24.27
50933;BME280;36921;49.006;9.292;2023-05-31T10:07:34;99032.72;;;36.49;24.99
50933;BME280;36921;49.006;9.292;2023-05-31T10:10:00;99042.69;;;36.62;25.11
50933;BME280;36921;49.006;9.292;2023-05-31T10:12:26;99053.34;;;36.53;25.45
50933;BME280;36921;49.006;9.292;2023-05-31T10:15:04;99042.41;;;36.90;24.89
50933;BME280;36921;49.006;9.292;2023-05-31T10:17:38;99050.22;;;37.43;24.53
50933;BME280;36921;49.006;9.292;2023-05-31T10:20:07;99049.81;;;37.64;25.66
50933;BME280;36921;49.006;9.292;2023-05-31T10:22:36;99039.63;;;38.73;23.87
50933;BME280;36921;49.006;9.292;2023-05-31T10:25:06;99026.69;;;37.81;23.90
50933;BME280;36921;49.006;9.292;2023-05-31T10:27:38;99033.78;;;37.48;24.31
50933;BME280;36921;49.006;9.292;2023-05-31T10:30:04;99037.84;;;35.56;25.70
50933;BME280;36921;49.006;9.292;2023-05-31T10:32:34;99027.25;;;36.56;25.17
50933;BME280;36921;49.006;9.292;2023-05-31T10:35:00;99020.34;;;35.98;25.52
50933;BME280;36921;49.006;9.292;2023-05-31T10:37:28;99012.59;;;37.85;24.75
50933;BME280;36921;49.006;9.292;2023-05-31T10:40:01;99012.81;;;36.80;24.55
50933;BME280;36921;49.006;9.292;2023-05-31T10:47:42;99013.88;;;37.91;24.98
50933;BME280;36921;49.006;9.292;2023-05-31T10:50:17;99007.28;;;39.08;24.62
50933;BME280;36921;49.006;9.292;2023-05-31T10:52:42;99005.94;;;38.57;24.01
50933;BME280;36921;49.006;9.292;2023-05-31T10:55:23;99010.44;;;38.01;23.88
50933;BME280;36921;49.006;9.292;2023-05-31T10:57:50;99008.03;;;37.50;24.36
50933;BME280;36921;49.006;9.292;2023-05-31T11:00:19;99012.25;;;37.14;24.24
50933;BME280;36921;49.006;9.292;2023-05-31T11:02:50;99001.75;;;37.87;25.31
50933;BME280;36921;49.006;9.292;2023-05-31T11:05:24;99012.00;;;38.29;23.21
50933;BME280;36921;49.006;9.292;2023-05-31T11:07:53;98992.47;;;37.37;24.19
50933;BME280;36921;49.006;9.292;2023-05-31T11:10:25;98993.59;;;38.08;24.17
50933;BME280;36921;49.006;9.292;2023-05-31T11:12:51;98992.47;;;38.17;22.91
50933;BME280;36921;49.006;9.292;2023-05-31T11:15:18;99001.47;;;39.34;23.15
50933;BME280;36921;49.006;9.292;2023-05-31T11:17:54;98995.09;;;38.66;22.97
50933;BME280;36921;49.006;9.292;2023-05-31T11:20:20;98997.25;;;37.56;23.76
50933;BME280;36921;49.006;9.292;2023-05-31T11:22:46;98992.94;;;37.92;23.69
50933;BME280;36921;49.006;9.292;2023-05-31T11:25:18;98987.88;;;36.82;24.24
50933;BME280;36921;49.006;9.292;2023-05-31T11:27:46;98988.66;;;36.60;24.48
50933;BME280;36921;49.006;9.292;2023-05-31T11:30:14;98980.16;;;36.37;24.94
50933;BME280;36921;49.006;9.292;2023-05-31T11:35:09;98963.75;;;38.11;23.53
50933;BME280;36921;49.006;9.292;2023-05-31T11:37:38;98986.19;;;37.01;23.96
50933;BME280;36921;49.006;9.292;2023-05-31T11:40:07;98978.41;;;37.14;24.08
50933;BME280;36921;49.006;9.292;2023-05-31T11:42:36;98984.19;;;36.78;23.92
50933;BME280;36921;49.006;9.292;2023-05-31T11:45:06;98967.63;;;37.46;24.62
50933;BME280;36921;49.006;9.292;2023-05-31T11:50:24;98973.22;;;36.73;24.98
50933;BME280;36921;49.006;9.292;2023-05-31T11:52:49;98961.66;;;37.78;23.60
50933;BME280;36921;49.006;9.292;2023-05-31T11:55:15;98928.78;;;37.13;24.05
50933;BME280;36921;49.006;9.292;2023-05-31T11:57:45;98961.28;;;36.02;23.57
50933;BME280;36921;49.006;9.292;2023-05-31T12:00:11;98956.91;;;35.02;24.16
50933;BME280;36921;49.006;9.292;2023-05-31T12:02:51;98961.13;;;36.96;23.77
50933;BME280;36921;49.006;9.292;2023-05-31T12:05:17;98974.91;;;37.01;22.75
50933;BME280;36921;49.006;9.292;2023-05-31T12:07:43;98946.72;;;37.01;23.04
50933;BME280;36921;49.006;9.292;2023-05-31T12:10:09;98954.69;;;37.68;22.62
50933;BME280;36921;49.006;9.292;2023-05-31T12:12:35;98934.06;;;37.94;22.75
50933;BME280;36921;49.006;9.292;2023-05-31T12:15:00;98936.69;;;38.85;22.26
50933;BME280;36921;49.006;9.292;2023-05-31T12:17:30;98948.00;;;39.26;23.02
50933;BME280;36921;49.006;9.292;2023-05-31T12:19:55;98936.03;;;37.37;22.01
50933;BME280;36921;49.006;9.292;2023-05-31T12:22:21;98937.06;;;37.02;21.89
50933;BME280;36921;49.006;9.292;2023-05-31T12:24:50;98934.72;;;36.19;22.45
50933;BME280;36921;49.006;9.292;2023-05-31T12:27:16;98943.66;;;35.50;23.19
50933;BME280;36921;49.006;9.292;2023-05-31T12:29:42;98939.47;;;37.49;22.46
50933;BME280;36921;49.006;9.292;2023-05-31T12:32:07;98933.78;;;38.03;22.44
50933;BME280;36921;49.006;9.292;2023-05-31T12:34:35;98932.28;;;38.12;21.93
50933;BME280;36921;49.006;9.292;2023-05-31T12:37:08;98928.72;;;38.53;22.28
50933;BME280;36921;49.006;9.292;2023-05-31T12:39:34;98927.56;;;38.24;22.45
50933;BME280;36921;49.006;9.292;2023-05-31T12:42:00;98935.31;;;37.70;22.33
50933;BME280;36921;49.006;9.292;2023-05-31T12:44:26;98922.03;;;38.72;22.73
50933;BME280;36921;49.006;9.292;2023-05-31T12:47:07;98928.72;;;37.59;22.29
50933;BME280;36921;49.006;9.292;2023-05-31T12:49:34;98922.13;;;37.01;22.75
50933;BME280;36921;49.006;9.292;2023-05-31T12:52:01;98906.25;;;36.90;23.35
50933;BME280;36921;49.006;9.292;2023-05-31T12:54:29;98932.44;;;35.89;23.61
50933;BME280;36921;49.006;9.292;2023-05-31T12:56:57;98925.22;;;36.08;23.36
50933;BME280;36921;49.006;9.292;2023-05-31T12:59:23;98903.41;;;35.85;22.62
50933;BME280;36921;49.006;9.292;2023-05-31T13:01:48;98909.78;;;36.40;22.98
50933;BME280;36921;49.006;9.292;2023-05-31T13:04:13;98903.47;;;38.33;23.16
50933;BME280;36921;49.006;9.292;2023-05-31T13:06:40;98919.34;;;38.86;22.38
50933;BME280;36921;49.006;9.292;2023-05-31T13:09:06;98915.66;;;37.77;21.85
50933;BME280;36921;49.006;9.292;2023-05-31T13:11:39;98908.78;;;38.39;22.04
50933;BME280;36921;49.006;9.292;2023-05-31T13:14:07;98912.91;;;37.54;22.44
50933;BME280;36921;49.006;9.292;2023-05-31T13:16:34;98901.50;;;38.78;22.02
50933;BME280;36921;49.006;9.292;2023-05-31T13:19:00;98895.25;;;38.99;22.33
50933;BME280;36921;49.006;9.292;2023-05-31T13:21:27;98904.41;;;37.50;22.75